Time;durP1;ratioP1;P1;durP2;ratioP2;P2;SDS_P1;SDS_P2;PMS_P1;PMS_P2;Temp;Humidity;BMP_temperature;BMP_pressure;BME280_temperature;BME280_humidity;BME280_pressure;Samples;Min_cycle;Max_cycle;Signal;HPM_P1;HPM_P2
2022/11/09 00:00:11;;;;;;;8.82;3.83;;;;;;;5.49;100.00;95602.06;1026594;28;20030;-71
2022/11/09 00:00:41;;;;;;;6.10;3.63;;;;;;;5.46;100.00;95594.72;1030827;28;20026;-68
2022/11/09 00:01:12;;;;;;;8.35;3.88;;;;;;;5.60;100.00;95615.03;1034854;28;20034;-70
2022/11/09 00:01:42;;;;;;;7.65;4.50;;;;;;;5.51;100.00;95598.22;1034686;28;20029;-69
2022/11/09 00:02:13;;;;;;;5.38;3.28;;;;;;;5.62;100.00;95615.56;1029667;28;20117;-68
2022/11/09 00:02:43;;;;;;;7.45;3.92;;;;;;;5.56;100.00;95607.91;1030644;28;20034;-71
2022/11/09 00:03:13;;;;;;;7.68;3.53;;;;;;;5.61;100.00;95606.19;1022651;28;20031;-68
2022/11/09 00:03:44;;;;;;;7.45;4.13;;;;;;;5.68;100.00;95616.47;1022530;28;20555;-70
2022/11/09 00:04:14;;;;;;;6.38;3.30;;;;;;;5.68;100.00;95613.84;1022551;29;20057;-70
2022/11/09 00:04:45;;;;;;;6.18;3.97;;;;;;;5.71;100.00;95616.00;1026597;28;20034;-70
2022/11/09 00:05:15;;;;;;;7.75;4.38;;;;;;;5.72;100.00;95622.75;1026356;28;20026;-69
2022/11/09 00:05:55;;;;;;;6.65;3.85;;;;;;;5.70;100.00;95614.41;1022755;28;20051;-69
2022/11/09 00:06:26;;;;;;;5.88;3.55;;;;;;;5.73;100.00;95608.72;1029087;28;20093;-68
2022/11/09 00:06:57;;;;;;;5.45;3.78;;;;;;;5.75;100.00;95611.88;1035539;28;20124;-68
2022/11/09 00:07:30;;;;;;;4.55;3.28;;;;;;;5.80;100.00;95608.56;1034586;28;20463;-68
2022/11/09 00:08:00;;;;;;;5.93;3.80;;;;;;;5.79;100.00;95610.38;1030135;28;20500;-66
2022/11/09 00:08:31;;;;;;;7.10;4.13;;;;;;;5.79;100.00;95610.38;1026522;28;20289;-68
2022/11/09 00:09:02;;;;;;;6.80;3.75;;;;;;;5.80;100.00;95608.56;1026226;28;20022;-69
2022/11/09 00:09:33;;;;;;;8.60;3.30;;;;;;;5.80;100.00;95614.59;1026993;28;20031;-70
2022/11/09 00:10:04;;;;;;;6.03;3.55;;;;;;;5.81;100.00;95605.75;1030681;28;20763;-70
2022/11/09 00:10:34;;;;;;;4.95;3.60;;;;;;;5.83;100.00;95602.91;1033332;28;20408;-67
2022/11/09 00:11:06;;;;;;;6.13;4.63;;;;;;;5.77;100.00;95591.63;1030722;28;20109;-69
2022/11/09 00:11:37;;;;;;;7.00;3.40;;;;;;;5.90;100.00;95606.94;1030236;28;20022;-69
2022/11/09 00:12:07;;;;;;;7.45;3.30;;;;;;;5.86;100.00;95597.22;1024000;28;20712;-69
2022/11/09 00:12:38;;;;;;;4.97;3.00;;;;;;;5.93;100.00;95610.13;1029942;28;20026;-70
2022/11/09 00:13:08;;;;;;;4.78;3.42;;;;;;;5.97;100.00;95608.59;1030359;28;20026;-71
2022/11/09 00:13:40;;;;;;;8.50;3.65;;;;;;;5.94;100.00;95609.91;1022517;28;20031;-68
2022/11/09 00:14:16;;;;;;;5.25;3.28;;;;;;;5.86;100.00;95592.78;1026918;28;20424;-69
2022/11/09 00:14:47;;;;;;;6.85;3.85;;;;;;;6.01;100.00;95609.75;1026396;28;20281;-70
2022/11/09 00:15:17;;;;;;;6.32;3.42;;;;;;;6.02;100.00;95606.88;1028606;28;20269;-70
2022/11/09 00:15:47;;;;;;;4.53;3.00;;;;;;;6.03;100.00;95608.47;1034583;28;20235;-69
2022/11/09 00:16:19;;;;;;;7.38;3.50;;;;;;;5.97;100.00;95590.38;1030594;28;20030;-68
2022/11/09 00:16:50;;;;;;;7.47;3.53;;;;;;;6.12;100.00;95601.06;1026544;28;20396;-69
2022/11/09 00:17:20;;;;;;;5.90;3.03;;;;;;;6.12;100.00;95601.06;1026413;28;20269;-68
2022/11/09 00:17:51;;;;;;;7.18;3.63;;;;;;;6.13;100.00;95602.63;1030650;28;20052;-71
2022/11/09 00:18:21;;;;;;;6.03;3.20;;;;;;;6.17;100.00;95601.13;1030697;28;20034;-69
2022/11/09 00:18:52;;;;;;;6.78;3.33;;;;;;;6.17;100.00;95595.13;1030262;28;20030;-68
2022/11/09 00:19:23;;;;;;;5.25;3.15;;;;;;;6.16;100.00;95596.94;1026530;28;20086;-68
2022/11/09 00:19:53;;;;;;;5.38;3.17;;;;;;;6.18;100.00;95594.91;1024602;28;20270;-68
2022/11/09 00:20:24;;;;;;;3.95;2.97;;;;;;;6.22;100.00;95595.22;1026508;28;20033;-70
2022/11/09 00:20:54;;;;;;;4.82;2.55;;;;;;;6.23;100.00;95596.78;1026620;28;20141;-70
2022/11/09 00:21:24;;;;;;;3.38;2.88;;;;;;;6.15;100.00;95579.75;1030373;28;20038;-69
2022/11/09 00:21:55;;;;;;;4.03;2.80;;;;;;;6.25;100.00;95590.31;1026622;28;20023;-69
2022/11/09 00:22:25;;;;;;;7.53;3.15;;;;;;;6.26;100.00;95591.09;1029760;28;20037;-69
2022/11/09 00:22:56;;;;;;;4.85;3.10;;;;;;;6.25;100.00;95584.31;1030553;28;20070;-67
2022/11/09 00:23:26;;;;;;;4.05;2.80;;;;;;;6.30;100.00;95585.16;1030469;28;20026;-69
2022/11/09 00:23:57;;;;;;;7.43;3.45;;;;;;;6.33;100.00;95589.88;1030460;28;20042;-70
2022/11/09 00:24:27;;;;;;;4.38;2.40;;;;;;;6.36;100.00;95592.03;1026567;28;20052;-70
2022/11/09 00:24:57;;;;;;;6.60;2.97;;;;;;;6.37;100.00;95582.38;1030548;28;20037;-70
2022/11/09 00:25:28;;;;;;;4.68;2.97;;;;;;;6.19;100.00;95554.00;1030470;28;20038;-69
2022/11/09 00:26:02;;;;;;;5.25;2.83;;;;;;;6.38;100.00;95583.97;1034537;28;20014;-71
2022/11/09 00:26:33;;;;;;;4.50;2.95;;;;;;;6.40;100.00;95586.34;1034634;28;20018;-70
2022/11/09 00:27:03;;;;;;;5.65;3.03;;;;;;;6.40;100.00;95588.94;1031043;28;20789;-66
2022/11/09 00:27:33;;;;;;;3.67;2.58;;;;;;;6.40;100.00;95581.13;1028884;28;20034;-70
2022/11/09 00:28:04;;;;;;;6.55;3.05;;;;;;;6.39;100.00;95580.34;1021718;29;20031;-67
2022/11/09 00:28:34;;;;;;;8.60;3.40;;;;;;;6.40;100.00;95578.50;1018600;29;20016;-67
2022/11/09 00:29:05;;;;;;;5.10;3.08;;;;;;;6.33;100.00;95569.03;1023588;28;20034;-69
2022/11/09 00:29:35;;;;;;;4.47;2.78;;;;;;;6.41;100.00;95577.50;1022582;28;20015;-68
2022/11/09 00:30:06;;;;;;;4.18;3.15;;;;;;;6.39;100.00;95580.34;1030799;28;20072;-68
2022/11/09 00:30:37;;;;;;;4.07;2.85;;;;;;;6.42;100.00;95584.28;1034542;28;20018;-70
2022/11/09 00:31:10;;;;;;;4.80;2.88;;;;;;;6.24;100.00;95562.69;1034456;28;20088;-68
2022/11/09 00:31:42;;;;;;;4.40;2.42;;;;;;;6.38;100.00;95579.56;1034484;28;20054;-70
2022/11/09 00:32:12;;;;;;;4.22;3.10;;;;;;;6.40;100.00;95581.13;1029262;28;20276;-71
2022/11/09 00:32:43;;;;;;;4.28;2.60;;;;;;;6.47;100.00;95581.72;1029138;28;20260;-69
2022/11/09 00:33:13;;;;;;;6.40;3.70;;;;;;;6.44;100.00;95579.59;1034059;28;20210;-68
2022/11/09 00:33:51;;;;;;;4.50;2.72;;;;;;;6.48;100.00;95578.13;1038557;28;20585;-68
2022/11/09 00:34:22;;;;;;;5.85;2.67;;;;;;;6.46;100.00;95580.94;1042948;28;20025;-70
2022/11/09 00:34:52;;;;;;;6.80;3.00;;;;;;;6.48;100.00;95578.13;1034458;28;20265;-71
2022/11/09 00:35:22;;;;;;;4.90;2.78;;;;;;;6.49;100.00;95577.09;1026440;28;20030;-70
2022/11/09 00:35:53;;;;;;;5.22;2.80;;;;;;;6.52;100.00;95579.22;1026543;28;20026;-70
2022/11/09 00:36:25;;;;;;;7.25;2.92;;;;;;;6.51;100.00;95572.44;1027709;28;20033;-71
2022/11/09 00:36:55;;;;;;;5.55;3.20;;;;;;;6.54;100.00;95577.16;1023173;28;20660;-70
2022/11/09 00:37:28;;;;;;;5.47;2.80;;;;;;;6.53;100.00;95578.97;1030511;28;20249;-70
2022/11/09 00:37:58;;;;;;;5.30;2.63;;;;;;;6.55;100.00;95579.53;1030427;28;20030;-68
2022/11/09 00:38:29;;;;;;;4.55;2.92;;;;;;;6.55;100.00;95582.13;1031389;28;21074;-68
2022/11/09 00:38:59;;;;;;;5.88;3.47;;;;;;;6.57;100.00;95587.09;1038669;28;20021;-71
2022/11/09 00:39:33;;;;;;;5.32;3.45;;;;;;;6.59;100.00;95579.81;1034442;28;20018;-68
2022/11/09 00:40:04;;;;;;;3.67;2.72;;;;;;;6.56;100.00;95569.88;1033835;28;20403;-70
2022/11/09 00:40:34;;;;;;;4.10;3.10;;;;;;;6.61;100.00;95575.94;1034522;28;20265;-70
2022/11/09 00:41:06;;;;;;;5.47;2.90;;;;;;;6.55;100.00;95565.69;1030959;28;20022;-69
2022/11/09 00:41:36;;;;;;;3.55;2.35;;;;;;;6.63;100.00;95575.69;1034375;28;20056;-68
2022/11/09 00:42:07;;;;;;;5.28;2.90;;;;;;;6.64;100.00;95577.28;1030291;28;20319;-68
2022/11/09 00:42:37;;;;;;;6.63;2.67;;;;;;;6.68;100.00;95575.78;1025986;28;20026;-71
2022/11/09 00:43:08;;;;;;;4.32;3.03;;;;;;;6.67;100.00;95571.56;1030430;28;20024;-70
2022/11/09 00:43:39;;;;;;;3.83;2.38;;;;;;;6.69;100.00;95572.13;1030623;28;20459;-69
2022/11/09 00:44:10;;;;;;;4.03;2.60;;;;;;;6.69;100.00;95574.75;1026224;28;20022;-67
2022/11/09 00:44:40;;;;;;;6.07;2.47;;;;;;;6.71;100.00;95577.13;1022434;29;20262;-67
2022/11/09 00:45:11;;;;;;;5.53;2.97;;;;;;;6.69;100.00;95569.53;1026155;28;20014;-69
2022/11/09 00:45:41;;;;;;;4.38;2.50;;;;;;;6.69;100.00;95574.75;1030745;28;20029;-69
2022/11/09 00:46:12;;;;;;;4.55;2.30;;;;;;;6.68;100.00;95562.75;1038352;28;20671;-69
2022/11/09 00:46:42;;;;;;;4.13;2.33;;;;;;;6.71;100.00;95572.69;1030326;28;20022;-69
2022/11/09 00:47:13;;;;;;;7.47;2.50;;;;;;;6.72;100.00;95573.47;1026275;28;20023;-69
2022/11/09 00:47:43;;;;;;;6.30;2.50;;;;;;;6.70;100.00;95576.31;1018615;29;20027;-71
2022/11/09 00:48:14;;;;;;;4.22;2.67;;;;;;;6.66;100.00;95562.19;1018901;29;20019;-70
2022/11/09 00:48:44;;;;;;;5.97;3.03;;;;;;;6.69;100.00;95574.75;1022585;28;20441;-68
2022/11/09 00:49:15;;;;;;;5.88;2.72;;;;;;;6.68;100.00;95572.38;1026572;28;20023;-69
2022/11/09 00:49:45;;;;;;;5.53;2.55;;;;;;;6.66;100.00;95570.00;1030586;28;20022;-70
2022/11/09 00:50:16;;;;;;;4.20;2.45;;;;;;;6.65;100.00;95580.69;1037588;28;20032;-69
2022/11/09 00:50:53;;;;;;;8.40;3.13;;;;;;;6.61;100.00;95575.16;1034500;28;20018;-68
2022/11/09 00:51:23;;;;;;;4.53;2.55;;;;;;;6.61;100.00;95575.94;1026356;28;20018;-71
2022/11/09 00:51:54;;;;;;;5.68;2.78;;;;;;;6.64;100.00;95572.09;1021276;29;20263;-71
2022/11/09 00:52:24;;;;;;;6.63;2.90;;;;;;;6.55;100.00;95574.31;1021725;29;20024;-69
2022/11/09 00:52:55;;;;;;;4.45;2.60;;;;;;;6.59;100.00;95579.81;1015222;29;20020;-69
2022/11/09 00:53:26;;;;;;;4.30;2.80;;;;;;;6.56;100.00;95575.09;1023982;28;20020;-69
2022/11/09 00:53:57;;;;;;;3.97;2.53;;;;;;;6.56;100.00;95575.09;1030538;28;20034;-70
2022/11/09 00:54:27;;;;;;;5.20;2.40;;;;;;;6.55;100.00;95573.53;1030669;28;20080;-68
2022/11/09 00:54:58;;;;;;;5.28;2.88;;;;;;;6.55;100.00;95584.72;1034085;28;20672;-69
2022/11/09 00:55:28;;;;;;;4.03;2.50;;;;;;;6.52;100.00;95579.22;1030485;28;20033;-71
2022/11/09 00:56:01;;;;;;;7.78;2.90;;;;;;;6.43;100.00;95570.22;1030574;28;20060;-68
2022/11/09 00:56:31;;;;;;;6.25;2.70;;;;;;;6.48;100.00;95584.13;1034665;28;20042;-69
2022/11/09 00:57:01;;;;;;;4.47;2.70;;;;;;;6.42;100.00;95579.06;1034350;28;20257;-69
2022/11/09 00:57:32;;;;;;;5.82;2.55;;;;;;;6.47;100.00;95582.56;1030405;28;20018;-70
2022/11/09 00:58:02;;;;;;;4.57;2.70;;;;;;;6.43;100.00;95588.47;1030427;28;20283;-70
2022/11/09 00:58:34;;;;;;;6.57;2.88;;;;;;;6.40;100.00;95588.94;1032059;28;20073;-68
2022/11/09 00:59:04;;;;;;;3.88;2.75;;;;;;;6.31;100.00;95573.72;1038912;28;20088;-71
2022/11/09 00:59:35;;;;;;;4.85;2.60;;;;;;;6.35;100.00;95587.06;1042599;28;20259;-70
2022/11/09 01:00:06;;;;;;;6.40;2.65;;;;;;;6.37;100.00;95585.81;1037965;28;20021;-70
2022/11/09 01:00:36;;;;;;;4.55;2.42;;;;;;;6.36;100.00;95589.41;1033887;28;20014;-69
2022/11/09 01:01:12;;;;;;;5.93;3.00;;;;;;;6.33;100.00;95587.28;1030147;28;20025;-69
2022/11/09 01:01:42;;;;;;;5.20;2.55;;;;;;;6.38;100.00;95587.38;1027112;28;20031;-70
2022/11/09 01:02:12;;;;;;;5.03;2.58;;;;;;;6.41;100.00;95586.09;1025006;28;20723;-68
2022/11/09 01:02:43;;;;;;;5.85;2.70;;;;;;;6.36;100.00;95584.19;1023568;28;20054;-68
2022/11/09 01:03:13;;;;;;;5.25;2.97;;;;;;;6.48;100.00;95588.53;1030328;28;20090;-70
2022/11/09 01:03:44;;;;;;;5.05;2.60;;;;;;;6.46;100.00;95590.59;1034339;28;20018;-70
2022/11/09 01:04:14;;;;;;;5.55;2.63;;;;;;;6.45;100.00;95584.59;1038472;28;20032;-70
2022/11/09 01:04:45;;;;;;;5.10;2.70;;;;;;;6.44;100.00;95587.44;1038419;28;20084;-71
2022/11/09 01:05:15;;;;;;;4.22;2.40;;;;;;;6.42;100.00;95579.06;1038327;28;20073;-69
2022/11/09 01:05:46;;;;;;;4.78;2.70;;;;;;;6.49;100.00;95587.50;1034458;28;20022;-70
2022/11/09 01:06:21;;;;;;;4.45;2.80;;;;;;;6.47;100.00;95586.94;1034366;28;20018;-70
2022/11/09 01:06:54;;;;;;;6.43;2.50;;;;;;;6.47;100.00;95586.94;1034270;28;20177;-70
2022/11/09 01:07:25;;;;;;;3.67;2.85;;;;;;;6.45;100.00;95589.81;1031326;28;20663;-69
2022/11/09 01:07:55;;;;;;;5.63;3.00;;;;;;;6.45;100.00;95592.41;1034536;28;20268;-69
2022/11/09 01:08:25;;;;;;;4.32;3.15;;;;;;;6.45;100.00;95589.81;1033832;28;20552;-68
2022/11/09 01:08:56;;;;;;;4.50;2.75;;;;;;;6.45;100.00;95583.81;1029269;28;20027;-68
2022/11/09 01:09:27;;;;;;;4.22;2.70;;;;;;;6.45;100.00;95586.41;1030311;28;20022;-70
2022/11/09 01:09:57;;;;;;;4.85;2.75;;;;;;;6.48;100.00;95588.53;1030386;28;20022;-69
2022/11/09 01:10:28;;;;;;;5.13;2.90;;;;;;;6.47;100.00;95589.56;1023956;28;20023;-67
2022/11/09 01:11:03;;;;;;;4.35;2.70;;;;;;;6.47;100.00;95592.16;1030350;28;20018;-68
2022/11/09 01:11:33;;;;;;;3.83;2.50;;;;;;;6.49;100.00;95587.50;1030461;28;20020;-70
2022/11/09 01:12:04;;;;;;;5.72;3.22;;;;;;;6.44;100.00;95582.22;1030926;28;20362;-70
2022/11/09 01:12:34;;;;;;;4.38;2.65;;;;;;;6.51;100.00;95593.28;1025629;28;20042;-69
2022/11/09 01:13:05;;;;;;;5.05;2.58;;;;;;;6.50;100.00;95581.25;1026518;28;20079;-69
2022/11/09 01:13:35;;;;;;;5.10;3.20;;;;;;;6.48;100.00;95593.75;1030372;28;20102;-69
2022/11/09 01:14:06;;;;;;;4.65;2.80;;;;;;;6.46;100.00;95590.59;1030273;28;20018;-70
2022/11/09 01:14:36;;;;;;;4.82;2.88;;;;;;;6.45;100.00;95594.25;1038506;28;20561;-68
2022/11/09 01:15:07;;;;;;;3.78;2.60;;;;;;;6.41;100.00;95593.16;1038507;28;20025;-69
2022/11/09 01:15:51;;;;;;;4.55;2.65;;;;;;;6.38;100.00;95595.19;1030110;28;20511;-68
2022/11/09 01:16:21;;;;;;;3.78;2.63;;;;;;;6.36;100.00;95597.22;1022222;29;20031;-69
2022/11/09 01:16:52;;;;;;;4.55;3.03;;;;;;;6.40;100.00;95599.38;1022395;29;20263;-68
2022/11/09 01:17:22;;;;;;;5.20;2.65;;;;;;;6.39;100.00;95598.56;1028453;28;20580;-71
2022/11/09 01:17:53;;;;;;;5.05;2.92;;;;;;;6.40;100.00;95599.38;1034553;28;20028;-68
2022/11/09 01:18:23;;;;;;;3.92;2.65;;;;;;;6.39;100.00;95595.97;1038462;28;20017;-71
2022/11/09 01:18:54;;;;;;;6.07;2.47;;;;;;;6.34;100.00;95593.31;1034240;28;20018;-69
2022/11/09 01:19:27;;;;;;;3.95;2.47;;;;;;;6.37;100.00;95598.81;1026213;28;20019;-69
2022/11/09 01:19:58;;;;;;;3.95;2.63;;;;;;;6.35;100.00;95595.66;1026254;28;20748;-70
2022/11/09 01:20:28;;;;;;;4.60;2.63;;;;;;;6.32;100.00;95596.13;1026208;28;20130;-69
2022/11/09 01:21:00;;;;;;;4.97;2.95;;;;;;;6.32;100.00;95596.13;1022402;29;20031;-71
2022/11/09 01:21:31;;;;;;;3.78;2.67;;;;;;;6.37;100.00;95598.00;1018192;29;20043;-70
2022/11/09 01:22:01;;;;;;;6.00;3.13;;;;;;;6.35;100.00;95598.28;1019128;28;20274;-69
2022/11/09 01:22:32;;;;;;;4.18;2.60;;;;;;;6.32;100.00;95590.94;1029074;28;20022;-68
2022/11/09 01:23:02;;;;;;;5.47;2.90;;;;;;;6.25;100.00;95579.09;1029428;28;20057;-70
2022/11/09 01:23:33;;;;;;;4.95;2.80;;;;;;;6.16;100.00;95581.31;1029081;28;20022;-67
2022/11/09 01:24:03;;;;;;;4.90;2.90;;;;;;;6.28;100.00;95594.25;1027956;28;20397;-69
2022/11/09 01:24:34;;;;;;;6.38;2.75;;;;;;;6.20;100.00;95587.63;1030263;28;20024;-69
2022/11/09 01:25:05;;;;;;;3.75;2.83;;;;;;;6.25;100.00;95590.31;1026283;28;20167;-69
2022/11/09 01:25:35;;;;;;;5.57;2.97;;;;;;;6.15;100.00;95579.75;1026035;28;20031;-70
2022/11/09 01:26:07;;;;;;;3.50;2.58;;;;;;;6.16;100.00;95593.53;1022418;29;20023;-67
2022/11/09 01:26:37;;;;;;;4.15;2.90;;;;;;;6.22;100.00;95600.41;1022380;29;20502;-68
2022/11/09 01:27:08;;;;;;;6.43;2.95;;;;;;;6.18;100.00;95589.69;1022247;29;20270;-70
2022/11/09 01:27:38;;;;;;;4.45;2.83;;;;;;;6.21;100.00;95594.41;1029614;28;20500;-71
2022/11/09 01:28:09;;;;;;;5.47;3.30;;;;;;;6.13;100.00;95576.56;1034689;28;20024;-71
2022/11/09 01:28:39;;;;;;;5.53;3.00;;;;;;;6.19;100.00;95590.47;1034416;28;20014;-70
2022/11/09 01:29:10;;;;;;;7.30;2.90;;;;;;;6.18;100.00;95579.25;1016581;29;20402;-69
2022/11/09 01:29:40;;;;;;;5.63;3.13;;;;;;;6.10;100.00;95567.44;1022080;29;20023;-68
2022/11/09 01:30:11;;;;;;;5.05;3.40;;;;;;;6.17;100.00;95590.72;1022561;29;20015;-70
2022/11/09 01:30:42;;;;;;;5.15;3.05;;;;;;;6.16;100.00;95591.72;1026423;28;20532;-69
2022/11/09 01:31:16;;;;;;;5.63;2.90;;;;;;;6.18;100.00;95588.91;1030392;28;20269;-70
2022/11/09 01:31:47;;;;;;;5.78;3.13;;;;;;;6.11;100.00;95573.44;1026137;28;20022;-69
2022/11/09 01:32:18;;;;;;;3.97;2.92;;;;;;;6.16;100.00;95581.31;1025924;28;20645;-67
2022/11/09 01:32:48;;;;;;;4.88;3.00;;;;;;;6.20;100.00;95592.81;1030014;28;20316;-71
2022/11/09 01:33:19;;;;;;;3.47;2.53;;;;;;;6.20;100.00;95582.41;1034441;28;20574;-70
2022/11/09 01:33:49;;;;;;;3.67;2.78;;;;;;;6.20;100.00;95587.63;1030396;28;20500;-70
2022/11/09 01:34:20;;;;;;;8.23;3.20;;;;;;;6.13;100.00;95582.56;1030648;28;20591;-70
2022/11/09 01:34:50;;;;;;;5.10;2.83;;;;;;;6.24;100.00;95603.59;1030232;28;20023;-70
2022/11/09 01:35:20;;;;;;;5.15;2.50;;;;;;;6.21;100.00;95589.22;1026490;28;20042;-69
2022/11/09 01:35:51;;;;;;;3.67;2.45;;;;;;;6.25;100.00;95590.31;1026466;28;20519;-71
2022/11/09 01:36:22;;;;;;;6.63;3.15;;;;;;;6.24;100.00;95587.94;1026257;28;20025;-70
2022/11/09 01:36:55;;;;;;;7.05;3.17;;;;;;;6.27;100.00;95603.91;1026938;28;20023;-68
2022/11/09 01:37:26;;;;;;;4.35;2.80;;;;;;;6.25;100.00;95590.31;1026850;28;20751;-70
2022/11/09 01:37:56;;;;;;;3.90;3.00;;;;;;;6.26;100.00;95591.09;1026109;28;20023;-68
2022/11/09 01:38:27;;;;;;;4.65;2.72;;;;;;;6.24;100.00;95593.94;1017963;29;20076;-70
2022/11/09 01:38:57;;;;;;;6.10;3.30;;;;;;;6.23;100.00;95586.34;1028501;28;20680;-68
2022/11/09 01:39:27;;;;;;;4.82;2.65;;;;;;;6.22;100.00;95590.78;1029442;28;20507;-68
2022/11/09 01:39:58;;;;;;;4.55;2.65;;;;;;;6.23;100.00;95591.56;1030288;28;20022;-70
2022/11/09 01:40:30;;;;;;;4.22;2.78;;;;;;;6.23;100.00;95588.97;1030174;28;20026;-70
2022/11/09 01:41:00;;;;;;;5.18;3.00;;;;;;;6.22;100.00;95585.56;1030594;28;20060;-72
2022/11/09 01:41:31;;;;;;;4.68;2.97;;;;;;;6.24;100.00;95583.53;1034212;28;20285;-68
2022/11/09 01:42:01;;;;;;;5.60;2.75;;;;;;;6.25;100.00;95586.91;1034746;28;20480;-70
2022/11/09 01:42:34;;;;;;;3.88;2.70;;;;;;;6.19;100.00;95570.41;1037728;28;20397;-70
2022/11/09 01:43:18;;;;;;;4.85;2.67;;;;;;;6.18;100.00;95579.25;1038316;28;20068;-69
2022/11/09 01:44:21;;;;;;;4.60;2.90;;;;;;;6.27;100.00;95590.88;1038478;28;20341;-70
2022/11/09 01:45:16;;;;;;;5.40;2.50;;;;;;;6.24;100.00;95588.75;1028867;28;20266;-68
2022/11/09 01:45:58;;;;;;;4.80;2.45;;;;;;;6.22;100.00;95582.19;1026737;28;20254;-70
2022/11/09 01:46:52;;;;;;;4.13;2.38;;;;;;;6.23;100.00;95589.75;1031153;28;20262;-69
2022/11/09 01:47:23;;;;;;;5.13;2.85;;;;;;;6.08;100.00;95563.50;1025181;28;20254;-70
2022/11/09 01:47:57;;;;;;;5.03;2.80;;;;;;;6.22;100.00;95582.97;1026311;28;20357;-70
2022/11/09 01:48:32;;;;;;;3.60;2.92;;;;;;;6.24;100.00;95582.75;1024653;28;20836;-71
2022/11/09 01:49:07;;;;;;;4.15;2.80;;;;;;;6.22;100.00;95580.34;1023511;28;20274;-68
2022/11/09 01:49:44;;;;;;;4.40;2.92;;;;;;;6.25;100.00;95587.69;1028732;28;20273;-70
2022/11/09 01:50:15;;;;;;;5.00;2.80;;;;;;;6.24;100.00;95582.75;1030252;28;20716;-68
2022/11/09 01:50:51;;;;;;;4.03;2.70;;;;;;;6.26;100.00;95575.47;1026186;28;20258;-70
2022/11/09 01:51:31;;;;;;;10.55;2.83;;;;;;;6.30;100.00;95579.16;1032047;28;20034;-67
2022/11/09 01:52:09;;;;;;;5.30;2.83;;;;;;;6.21;100.00;95573.56;1026309;28;20278;-70
2022/11/09 01:52:41;;;;;;;4.72;2.50;;;;;;;6.28;100.00;95584.63;1025496;28;20270;-68
2022/11/09 01:53:18;;;;;;;4.03;2.72;;;;;;;6.29;100.00;95585.41;1026358;28;20278;-67
2022/11/09 01:53:50;;;;;;;4.00;2.80;;;;;;;6.32;100.00;95577.91;1026362;28;20336;-69
2022/11/09 01:54:26;;;;;;;3.45;2.42;;;;;;;6.30;100.00;95585.16;1026246;28;20780;-68
2022/11/09 01:54:59;;;;;;;5.25;3.00;;;;;;;6.32;100.00;95580.50;1022055;28;20262;-70
2022/11/09 01:55:30;;;;;;;8.60;2.80;;;;;;;6.32;100.00;95580.50;1018273;29;20274;-66
2022/11/09 01:56:02;;;;;;;5.40;2.75;;;;;;;6.36;100.00;95584.19;1024726;28;20337;-72
2022/11/09 01:56:32;;;;;;;4.45;2.45;;;;;;;6.34;100.00;95580.28;1029039;28;20100;-70
2022/11/09 01:57:05;;;;;;;4.25;2.70;;;;;;;6.31;100.00;95573.72;1025916;28;20273;-68
2022/11/09 01:57:38;;;;;;;5.30;2.70;;;;;;;6.34;100.00;95582.88;1022400;29;20367;-68
2022/11/09 01:58:15;;;;;;;6.68;2.40;;;;;;;6.39;100.00;95582.94;1027063;28;20360;-69
2022/11/09 01:58:52;;;;;;;6.15;2.33;;;;;;;6.36;100.00;95583.41;1029942;28;20798;-68
2022/11/09 01:59:26;;;;;;;4.22;2.63;;;;;;;6.39;100.00;95580.34;1026302;28;20286;-70
2022/11/09 02:00:03;;;;;;;6.53;2.70;;;;;;;6.33;100.00;95569.03;1024556;28;20370;-68
2022/11/09 02:00:34;;;;;;;5.88;2.85;;;;;;;6.44;100.00;95582.22;1024718;28;20757;-70
2022/11/09 02:01:09;;;;;;;5.82;3.03;;;;;;;6.49;100.00;95585.69;1022111;29;20278;-68
2022/11/09 02:01:40;;;;;;;4.65;3.03;;;;;;;6.46;100.00;95582.78;1026315;28;20948;-70
2022/11/09 02:02:11;;;;;;;5.25;2.80;;;;;;;6.48;100.00;95578.13;1017779;29;20275;-68
2022/11/09 02:02:50;;;;;;;5.45;2.80;;;;;;;6.47;100.00;95581.72;1019823;28;20651;-70
2022/11/09 02:03:24;;;;;;;3.20;2.47;;;;;;;6.47;100.00;95577.34;1026008;28;20033;-70
2022/11/09 02:04:04;;;;;;;5.43;2.70;;;;;;;6.48;100.00;95586.72;1027731;28;20297;-70
2022/11/09 02:04:41;;;;;;;6.15;3.13;;;;;;;6.52;100.00;95581.81;1022456;29;20633;-70
2022/11/09 02:05:14;;;;;;;3.78;2.45;;;;;;;6.44;100.00;95567.38;1023283;28;20034;-68
2022/11/09 02:05:44;;;;;;;3.65;2.75;;;;;;;6.44;100.00;95577.00;1014384;29;20422;-69
2022/11/09 02:06:15;;;;;;;5.20;2.65;;;;;;;6.48;100.00;95584.13;1021482;28;20326;-72
2022/11/09 02:06:45;;;;;;;4.22;2.40;;;;;;;6.46;100.00;95575.75;1034369;28;20026;-70
2022/11/09 02:07:16;;;;;;;4.00;2.70;;;;;;;6.45;100.00;95582.00;1026727;28;20658;-69
2022/11/09 02:07:47;;;;;;;4.25;2.38;;;;;;;6.42;100.00;95576.47;1022307;29;20045;-70
2022/11/09 02:08:18;;;;;;;5.10;2.58;;;;;;;6.38;100.00;95568.34;1018690;29;20042;-70
2022/11/09 02:08:49;;;;;;;4.88;2.30;;;;;;;6.44;100.00;95572.59;1024597;28;20423;-69
2022/11/09 02:09:40;;;;;;;3.63;2.83;;;;;;;6.49;100.00;95571.88;1022317;28;20278;-69
2022/11/09 02:10:32;;;;;;;4.40;2.38;;;;;;;6.44;100.00;95570.00;1026587;28;20483;-71
2022/11/09 02:11:09;;;;;;;4.25;2.80;;;;;;;6.45;100.00;95576.00;1032179;28;20241;-70
2022/11/09 02:11:40;;;;;;;5.53;3.50;;;;;;;6.44;100.00;95566.56;1030322;28;20813;-68
2022/11/09 02:12:10;;;;;;;4.05;2.53;;;;;;;6.23;100.00;95542.06;1032054;28;20277;-68
2022/11/09 02:12:40;;;;;;;5.22;2.60;;;;;;;6.37;100.00;95566.75;1034272;28;20471;-70
2022/11/09 02:13:11;;;;;;;4.40;2.38;;;;;;;6.37;100.00;95569.34;1035231;28;20061;-70
2022/11/09 02:13:45;;;;;;;4.05;2.63;;;;;;;6.33;100.00;95563.84;1030915;28;20022;-69
2022/11/09 02:14:16;;;;;;;4.97;2.63;;;;;;;6.36;100.00;95565.97;1023129;29;20119;-67
2022/11/09 02:14:47;;;;;;;4.07;2.67;;;;;;;6.36;100.00;95565.97;1027297;28;20305;-70
2022/11/09 02:15:17;;;;;;;3.78;2.30;;;;;;;6.37;100.00;95571.97;1027200;28;20047;-67
2022/11/09 02:15:48;;;;;;;4.03;2.75;;;;;;;6.33;100.00;95571.66;1022820;28;20329;-69
2022/11/09 02:16:21;;;;;;;4.82;2.63;;;;;;;6.30;100.00;95577.34;1023204;28;20038;-68
2022/11/09 02:16:52;;;;;;;5.55;2.13;;;;;;;6.21;100.00;95562.38;1027750;28;20488;-67
2022/11/09 02:17:22;;;;;;;4.28;2.50;;;;;;;6.22;100.00;95559.50;1034118;28;20335;-69
2022/11/09 02:17:53;;;;;;;2.42;1.92;;;;;;;6.20;100.00;95558.16;1034837;28;20068;-70
2022/11/09 02:18:24;;;;;;;5.10;3.15;;;;;;;6.26;100.00;95559.81;1030907;28;20041;-70
2022/11/09 02:18:56;;;;;;;3.35;2.30;;;;;;;6.24;100.00;95567.09;1029616;28;20344;-68
2022/11/09 02:19:26;;;;;;;3.60;2.33;;;;;;;6.24;100.00;95561.91;1019131;29;20031;-69
2022/11/09 02:19:57;;;;;;;4.00;2.40;;;;;;;6.15;100.00;95556.28;1023388;28;20274;-67
2022/11/09 02:20:28;;;;;;;3.65;2.78;;;;;;;6.17;100.00;95563.84;1031028;28;20081;-68
2022/11/09 02:20:58;;;;;;;11.45;3.20;;;;;;;6.19;100.00;95567.81;1031256;28;20404;-70
2022/11/09 02:21:29;;;;;;;5.00;2.58;;;;;;;6.15;100.00;95564.09;1030869;28;20123;-69
2022/11/09 02:22:00;;;;;;;3.85;2.25;;;;;;;6.15;100.00;95569.31;1026880;28;20113;-70
2022/11/09 02:22:31;;;;;;;4.00;2.40;;;;;;;6.09;100.00;95560.63;1029327;28;20332;-68
2022/11/09 02:23:01;;;;;;;4.68;2.58;;;;;;;6.11;100.00;95568.22;1026917;28;20027;-70
2022/11/09 02:23:32;;;;;;;5.55;2.47;;;;;;;6.10;100.00;95564.03;1027194;28;20485;-69
2022/11/09 02:24:02;;;;;;;6.07;2.08;;;;;;;6.01;100.00;95555.06;1026974;28;20444;-70
2022/11/09 02:24:33;;;;;;;6.40;2.20;;;;;;;6.07;100.00;95561.88;1027034;28;20015;-67
2022/11/09 02:25:03;;;;;;;4.53;2.40;;;;;;;6.05;100.00;95566.56;1023237;28;20028;-69
2022/11/09 02:25:34;;;;;;;3.20;2.20;;;;;;;5.99;100.00;95555.28;1030974;28;20018;-69
2022/11/09 02:26:07;;;;;;;3.78;2.10;;;;;;;5.99;100.00;95551.88;1026108;28;20093;-69
2022/11/09 02:26:40;;;;;;;4.88;2.42;;;;;;;6.03;100.00;95568.59;1028552;28;20046;-67
2022/11/09 02:27:11;;;;;;;3.22;2.55;;;;;;;6.00;100.00;95550.84;1024281;28;20704;-68
2022/11/09 02:27:41;;;;;;;3.05;2.17;;;;;;;6.07;100.00;95562.69;1026951;28;20266;-69
2022/11/09 02:28:12;;;;;;;3.20;2.15;;;;;;;6.09;100.00;95559.84;1022408;29;20027;-68
2022/11/09 02:28:42;;;;;;;4.30;2.30;;;;;;;6.11;100.00;95563.00;1022698;29;20026;-68
2022/11/09 02:29:15;;;;;;;7.97;2.50;;;;;;;6.05;100.00;95550.94;1030594;28;20057;-68
2022/11/09 02:29:46;;;;;;;3.53;2.25;;;;;;;6.06;100.00;95560.31;1026687;28;20027;-68
2022/11/09 02:30:16;;;;;;;4.47;2.47;;;;;;;6.08;100.00;95561.66;1014819;29;20272;-70